Time;durP1;ratioP1;P1;durP2;ratioP2;P2;SDS_P1;SDS_P2;PMS_P1;PMS_P2;Temp;Humidity;BMP_temperature;BMP_pressure;BME280_temperature;BME280_humidity;BME280_pressure;Samples;Min_cycle;Max_cycle;Signal;HPM_P1;HPM_P2
2022/10/10 00:01:03;;;;;;;;;;;7.20;99.90;;;;;;5059299;28;19963;-89
2022/10/10 00:03:29;;;;;;;;;;;7.20;99.90;;;;;;5076427;28;20337;-89
2022/10/10 00:05:54;;;;;;;;;;;7.20;99.90;;;;;;5059028;28;20259;-89
2022/10/10 00:08:20;;;;;;;;;;;7.20;99.90;;;;;;5075934;28;20252;-90
2022/10/10 00:10:45;;;;;;;;;;;7.20;99.90;;;;;;5059615;28;19912;-89
2022/10/10 00:13:11;;;;;;;;;;;7.20;99.90;;;;;;5092337;28;24091;-89
2022/10/10 00:15:37;;;;;;;;;;;7.20;99.90;;;;;;5076496;28;20386;-90
2022/10/10 00:18:02;;;;;;;;;;;7.20;99.90;;;;;;5075719;28;19943;-89
2022/10/10 00:20:28;;;;;;;;;;;7.10;99.90;;;;;;5076993;28;19908;-89
2022/10/10 00:22:54;;;;;;;;;;;7.20;99.90;;;;;;5059522;28;24135;-90
2022/10/10 00:25:20;;;;;;;;;;;7.20;99.90;;;;;;5070862;28;19908;-89
2022/10/10 00:27:46;;;;;;;;;;;7.10;99.90;;;;;;5074911;28;19957;-90
2022/10/10 00:30:11;;;;;;;;;;;7.10;99.90;;;;;;5076374;28;19912;-90
2022/10/10 00:32:37;;;;;;;;;;;7.10;99.90;;;;;;5059249;28;20434;-90
2022/10/10 00:35:03;;;;;;;;;;;7.10;99.90;;;;;;5075999;28;19917;-90
2022/10/10 00:37:29;;;;;;;;;;;7.10;99.90;;;;;;5059235;28;20363;-90
2022/10/10 00:39:54;;;;;;;;;;;7.10;99.90;;;;;;5058995;28;19908;-90
2022/10/10 00:42:20;;;;;;;;;;;7.00;99.90;;;;;;5058993;28;20421;-90
2022/10/10 00:48:21;;;;;;;;;;;7.00;99.90;;;;;;5071488;28;20446;-90
2022/10/10 00:50:47;;;;;;;;;;;7.10;99.90;;;;;;5092135;28;19930;-90
2022/10/10 00:53:15;;;;;;;;;;;7.10;99.90;;;;;;5077913;28;20319;-90
2022/10/10 00:55:41;;;;;;;;;;;7.10;99.90;;;;;;5077746;28;19912;-90
2022/10/10 00:58:07;;;;;;;;;;;7.10;99.90;;;;;;5114187;28;19962;-89
2022/10/10 01:00:33;;;;;;;;;;;7.20;99.90;;;;;;5079579;28;19909;-90
2022/10/10 01:02:59;;;;;;;;;;;7.10;99.90;;;;;;5096473;28;19990;-90
2022/10/10 01:05:25;;;;;;;;;;;7.10;99.90;;;;;;5062958;28;19990;-89
2022/10/10 01:07:51;;;;;;;;;;;7.00;99.90;;;;;;5062561;28;24098;-89
2022/10/10 01:10:18;;;;;;;;;;;7.00;99.90;;;;;;5062771;28;20398;-89
2022/10/10 01:12:50;;;;;;;;;;;6.90;99.90;;;;;;5079129;28;20359;-89
2022/10/10 01:15:28;;;;;;;;;;;7.00;99.90;;;;;;5062267;28;20291;-89
2022/10/10 01:18:09;;;;;;;;;;;7.00;99.90;;;;;;5077741;28;24055;-90
2022/10/10 01:20:53;;;;;;;;;;;6.90;99.90;;;;;;5080395;28;19912;-90
2022/10/10 01:23:25;;;;;;;;;;;7.00;99.90;;;;;;5106624;28;19962;-89
2022/10/10 01:26:08;;;;;;;;;;;7.00;99.90;;;;;;5079276;28;19954;-89
2022/10/10 01:28:54;;;;;;;;;;;7.00;99.90;;;;;;5112892;28;24105;-90
2022/10/10 01:31:22;;;;;;;;;;;6.80;99.90;;;;;;5111445;28;19916;-90
2022/10/10 01:33:47;;;;;;;;;;;6.70;99.90;;;;;;5078668;28;19958;-90
2022/10/10 01:36:21;;;;;;;;;;;6.60;99.90;;;;;;5078752;28;19908;-90
2022/10/10 01:39:05;;;;;;;;;;;6.50;99.90;;;;;;5113327;28;20280;-90
2022/10/10 01:41:34;;;;;;;;;;;6.30;99.90;;;;;;5078617;28;24072;-90
2022/10/10 01:44:00;;;;;;;;;;;6.20;99.90;;;;;;5096125;28;20319;-89
2022/10/10 01:46:25;;;;;;;;;;;6.10;99.90;;;;;;5080451;28;19998;-90
2022/10/10 01:48:53;;;;;;;;;;;6.00;99.90;;;;;;5112204;28;20378;-90
2022/10/10 01:51:38;;;;;;;;;;;6.00;99.90;;;;;;5079393;28;19916;-89
2022/10/10 01:54:26;;;;;;;;;;;6.00;99.90;;;;;;5095142;28;19935;-90
2022/10/10 01:57:10;;;;;;;;;;;6.30;99.90;;;;;;5078106;28;20330;-91
2022/10/10 01:59:45;;;;;;;;;;;6.20;99.90;;;;;;5078383;28;19908;-89
2022/10/10 02:02:30;;;;;;;;;;;6.10;99.90;;;;;;5092070;28;19915;-90
2022/10/10 02:04:58;;;;;;;;;;;6.10;99.90;;;;;;5094988;28;24057;-90
2022/10/10 02:07:27;;;;;;;;;;;6.10;99.90;;;;;;5061569;28;19911;-90
2022/10/10 02:09:52;;;;;;;;;;;6.00;99.90;;;;;;5095287;28;19912;-90
2022/10/10 02:12:19;;;;;;;;;;;6.00;99.90;;;;;;5078734;28;20013;-90
2022/10/10 02:14:50;;;;;;;;;;;5.90;99.90;;;;;;5111977;28;19917;-90
2022/10/10 02:17:16;;;;;;;;;;;5.90;99.90;;;;;;5061614;28;19931;-90
2022/10/10 02:19:43;;;;;;;;;;;5.80;99.90;;;;;;5094998;28;19915;-89
2022/10/10 02:22:09;;;;;;;;;;;5.90;99.90;;;;;;5061603;28;19908;-90
2022/10/10 02:24:34;;;;;;;;;;;6.00;99.90;;;;;;5078138;28;19908;-90
2022/10/10 02:27:04;;;;;;;;;;;6.00;99.90;;;;;;5095452;28;19908;-89
2022/10/10 02:29:32;;;;;;;;;;;6.00;99.90;;;;;;5078436;28;19915;-90
2022/10/10 02:32:15;;;;;;;;;;;6.10;99.90;;;;;;5112734;28;19908;-89
2022/10/10 02:34:46;;;;;;;;;;;6.20;99.90;;;;;;5080020;28;24051;-89
2022/10/10 02:37:14;;;;;;;;;;;6.20;99.90;;;;;;5078901;28;19964;-90
2022/10/10 02:39:44;;;;;;;;;;;6.30;99.90;;;;;;5079063;28;19909;-89
2022/10/10 02:42:41;;;;;;;;;;;6.30;99.90;;;;;;5083227;28;19908;-87
2022/10/10 02:45:07;;;;;;;;;;;6.40;99.90;;;;;;5077400;28;19916;-89
2022/10/10 02:47:51;;;;;;;;;;;6.50;99.90;;;;;;5063332;28;20262;-89
2022/10/10 02:50:17;;;;;;;;;;;6.60;99.90;;;;;;5107317;28;20286;-90
2022/10/10 02:52:42;;;;;;;;;;;6.60;99.90;;;;;;5080243;28;19916;-90
2022/10/10 02:55:08;;;;;;;;;;;6.70;99.90;;;;;;5062340;28;19912;-89
2022/10/10 02:57:34;;;;;;;;;;;6.80;99.90;;;;;;5062187;28;19987;-90
2022/10/10 03:00:00;;;;;;;;;;;6.80;99.90;;;;;;5095703;28;20006;-90
2022/10/10 03:05:54;;;;;;;;;;;6.70;99.90;;;;;;5079059;28;19954;-90
2022/10/10 03:08:20;;;;;;;;;;;6.80;99.90;;;;;;5060693;28;20363;-89
2022/10/10 03:10:56;;;;;;;;;;;6.90;99.90;;;;;;5078818;28;19909;-89
2022/10/10 03:13:21;;;;;;;;;;;6.90;99.90;;;;;;5061308;28;19916;-89
2022/10/10 03:15:47;;;;;;;;;;;6.90;99.90;;;;;;5060962;28;19938;-89
2022/10/10 03:18:13;;;;;;;;;;;6.90;99.90;;;;;;5077432;28;19920;-89
2022/10/10 03:20:38;;;;;;;;;;;6.90;99.90;;;;;;5077203;28;19908;-89
2022/10/10 03:23:04;;;;;;;;;;;6.90;99.90;;;;;;5060205;28;19912;-90
2022/10/10 03:25:29;;;;;;;;;;;6.80;99.90;;;;;;5078023;28;19908;-90
2022/10/10 03:27:55;;;;;;;;;;;6.80;99.90;;;;;;5060656;28;19948;-90
2022/10/10 03:30:20;;;;;;;;;;;6.80;99.90;;;;;;5060537;28;19908;-90
2022/10/10 03:32:46;;;;;;;;;;;6.70;99.90;;;;;;5078776;28;24078;-90
2022/10/10 03:35:11;;;;;;;;;;;6.70;99.90;;;;;;5078239;28;20003;-90
2022/10/10 03:37:37;;;;;;;;;;;6.70;99.90;;;;;;5060384;28;19931;-90
2022/10/10 03:40:12;;;;;;;;;;;6.70;99.90;;;;;;5078614;28;19952;-89
2022/10/10 03:42:37;;;;;;;;;;;6.70;99.90;;;;;;5077255;28;19970;-90
2022/10/10 03:45:03;;;;;;;;;;;6.70;99.90;;;;;;5060163;28;24075;-90
2022/10/10 03:47:29;;;;;;;;;;;6.80;99.90;;;;;;5077475;28;19908;-90
2022/10/10 03:49:54;;;;;;;;;;;6.70;99.90;;;;;;5077129;28;19916;-89
2022/10/10 03:52:20;;;;;;;;;;;6.70;99.90;;;;;;5081417;28;19995;-90
2022/10/10 03:54:46;;;;;;;;;;;6.70;99.90;;;;;;5077482;28;20260;-90
2022/10/10 03:57:27;;;;;;;;;;;6.70;99.90;;;;;;5059634;28;24083;-90
2022/10/10 03:59:52;;;;;;;;;;;6.70;99.90;;;;;;5077577;28;19944;-89
2022/10/10 04:02:18;;;;;;;;;;;6.60;99.90;;;;;;5076597;28;19930;-90
2022/10/10 04:04:43;;;;;;;;;;;6.50;99.90;;;;;;5093633;28;19916;-89
2022/10/10 04:07:09;;;;;;;;;;;6.40;99.90;;;;;;5076011;28;19908;-91
2022/10/10 04:10:06;;;;;;;;;;;6.40;99.90;;;;;;5092959;28;24060;-90
2022/10/10 04:12:31;;;;;;;;;;;6.40;99.90;;;;;;5108104;28;19913;-89
2022/10/10 04:14:57;;;;;;;;;;;6.30;99.90;;;;;;5077091;28;19912;-90
2022/10/10 04:17:22;;;;;;;;;;;6.30;99.90;;;;;;5059499;28;20375;-90
2022/10/10 04:19:48;;;;;;;;;;;6.20;99.90;;;;;;5092817;28;19912;-89
2022/10/10 04:22:15;;;;;;;;;;;6.20;99.90;;;;;;5077363;28;19912;-90
2022/10/10 04:24:41;;;;;;;;;;;6.20;99.90;;;;;;5059110;28;20439;-89
2022/10/10 04:27:06;;;;;;;;;;;6.20;99.90;;;;;;5077155;28;19908;-90
2022/10/10 04:29:32;;;;;;;;;;;6.20;99.90;;;;;;5059347;28;20268;-90
2022/10/10 04:31:58;;;;;;;;;;;6.10;99.90;;;;;;5093806;28;19959;-90
2022/10/10 04:34:23;;;;;;;;;;;6.10;99.90;;;;;;5060224;28;24146;-89
2022/10/10 04:36:49;;;;;;;;;;;6.10;99.90;;;;;;5093546;28;19943;-90
2022/10/10 04:39:14;;;;;;;;;;;6.20;99.90;;;;;;5076275;28;19912;-90
2022/10/10 04:41:40;;;;;;;;;;;6.30;99.90;;;;;;5077326;28;19988;-89
2022/10/10 04:44:06;;;;;;;;;;;6.30;99.90;;;;;;5077761;28;19963;-90
2022/10/10 04:46:31;;;;;;;;;;;6.30;99.90;;;;;;5060202;28;24085;-90
2022/10/10 04:48:57;;;;;;;;;;;6.30;99.90;;;;;;5094089;28;19908;-89
2022/10/10 04:51:23;;;;;;;;;;;6.30;99.90;;;;;;5076640;28;19919;-89
2022/10/10 04:53:48;;;;;;;;;;;6.50;99.90;;;;;;5096025;28;19941;-88
2022/10/10 04:56:14;;;;;;;;;;;6.50;99.90;;;;;;5060161;28;20481;-89
2022/10/10 04:58:39;;;;;;;;;;;6.40;99.90;;;;;;5068944;28;24092;-89
2022/10/10 05:01:05;;;;;;;;;;;6.40;99.90;;;;;;5059872;28;19908;-89
2022/10/10 05:03:31;;;;;;;;;;;6.40;99.90;;;;;;5076444;28;19972;-89
2022/10/10 05:05:57;;;;;;;;;;;6.40;99.90;;;;;;5059749;28;19919;-89
2022/10/10 05:08:23;;;;;;;;;;;6.50;99.90;;;;;;5058895;28;19912;-89
2022/10/10 05:10:50;;;;;;;;;;;6.50;99.90;;;;;;5075953;28;24078;-89
2022/10/10 05:13:16;;;;;;;;;;;6.60;99.90;;;;;;5059428;28;20260;-89
2022/10/10 05:15:42;;;;;;;;;;;6.50;99.90;;;;;;5060302;28;20045;-89
2022/10/10 05:18:07;;;;;;;;;;;6.40;99.90;;;;;;5061512;28;19951;-89
2022/10/10 05:20:33;;;;;;;;;;;6.40;99.90;;;;;;5057917;28;19943;-89
2022/10/10 05:22:59;;;;;;;;;;;6.30;99.90;;;;;;5057831;28;19939;-89
2022/10/10 05:25:25;;;;;;;;;;;6.30;99.90;;;;;;5058919;28;19915;-90
2022/10/10 05:27:51;;;;;;;;;;;6.30;99.90;;;;;;5053161;28;19912;-90
2022/10/10 05:30:17;;;;;;;;;;;6.30;99.90;;;;;;5058809;28;19908;-89
2022/10/10 05:32:43;;;;;;;;;;;6.40;99.90;;;;;;5071433;28;19912;-89
2022/10/10 05:35:08;;;;;;;;;;;6.50;99.90;;;;;;5074909;28;19920;-89
2022/10/10 05:37:34;;;;;;;;;;;6.60;99.90;;;;;;5087442;28;20378;-89
2022/10/10 05:40:00;;;;;;;;;;;6.70;99.90;;;;;;5067692;28;20619;-89
2022/10/10 05:42:25;;;;;;;;;;;6.70;99.90;;;;;;5075228;28;19908;-89
2022/10/10 05:44:51;;;;;;;;;;;6.60;99.90;;;;;;5075103;28;20391;-89
2022/10/10 05:47:17;;;;;;;;;;;6.60;99.90;;;;;;5073727;28;19912;-89
2022/10/10 05:49:42;;;;;;;;;;;6.60;99.90;;;;;;5092132;28;19912;-89
2022/10/10 05:52:08;;;;;;;;;;;6.60;99.90;;;;;;5069424;28;19908;-89
2022/10/10 05:54:34;;;;;;;;;;;6.50;99.90;;;;;;5063972;28;20368;-90
2022/10/10 05:56:59;;;;;;;;;;;6.50;99.90;;;;;;5089008;28;24082;-89
2022/10/10 05:59:27;;;;;;;;;;;6.50;99.90;;;;;;5086237;28;20378;-89
2022/10/10 06:01:52;;;;;;;;;;;6.40;99.90;;;;;;5073149;28;19916;-89
2022/10/10 06:04:18;;;;;;;;;;;6.40;99.90;;;;;;5071506;28;19954;-90
2022/10/10 06:06:43;;;;;;;;;;;6.40;99.90;;;;;;5089539;28;19973;-89
2022/10/10 06:09:09;;;;;;;;;;;6.50;99.90;;;;;;5072539;28;24072;-89
2022/10/10 06:11:35;;;;;;;;;;;6.50;99.90;;;;;;5081647;28;19908;-90
2022/10/10 06:14:00;;;;;;;;;;;6.60;99.90;;;;;;5089198;28;19916;-89
2022/10/10 06:16:26;;;;;;;;;;;6.70;99.90;;;;;;5082118;28;20620;-89
2022/10/10 06:18:52;;;;;;;;;;;6.70;99.90;;;;;;5083681;28;19919;-89
2022/10/10 06:21:18;;;;;;;;;;;6.80;99.90;;;;;;5086174;28;19908;-89
2022/10/10 06:23:44;;;;;;;;;;;6.80;99.90;;;;;;5075045;28;20252;-89
2022/10/10 06:26:10;;;;;;;;;;;6.90;99.90;;;;;;5056934;28;19908;-89
2022/10/10 06:28:36;;;;;;;;;;;7.00;99.90;;;;;;5063261;28;20351;-89
2022/10/10 06:31:02;;;;;;;;;;;7.10;99.90;;;;;;5086086;28;20254;-89
2022/10/10 06:33:28;;;;;;;;;;;7.20;99.90;;;;;;5057889;28;20613;-89
2022/10/10 06:35:54;;;;;;;;;;;7.30;99.90;;;;;;5094543;28;19909;-90
2022/10/10 06:38:20;;;;;;;;;;;7.40;99.90;;;;;;5058821;28;20287;-90
2022/10/10 06:40:46;;;;;;;;;;;7.70;99.90;;;;;;5072298;28;19935;-89
2022/10/10 06:43:13;;;;;;;;;;;7.80;99.90;;;;;;5057072;28;20270;-90
2022/10/10 06:45:39;;;;;;;;;;;7.90;99.90;;;;;;5071887;28;19908;-90
2022/10/10 06:48:05;;;;;;;;;;;8.10;99.90;;;;;;5057109;28;19908;-87
2022/10/10 06:50:30;;;;;;;;;;;8.30;99.90;;;;;;5055526;28;19909;-90
2022/10/10 06:52:56;;;;;;;;;;;8.80;99.90;;;;;;5098496;28;19909;-89
2022/10/10 06:55:21;;;;;;;;;;;9.40;99.90;;;;;;5054806;28;19970;-89
2022/10/10 06:57:47;;;;;;;;;;;9.90;99.90;;;;;;5073281;28;24054;-90
2022/10/10 07:00:25;;;;;;;;;;;10.30;99.90;;;;;;5075592;28;19919;-89
2022/10/10 07:02:51;;;;;;;;;;;10.30;99.90;;;;;;5074593;28;20271;-90
2022/10/10 07:05:16;;;;;;;;;;;10.50;99.90;;;;;;5057516;28;19904;-90
2022/10/10 07:07:43;;;;;;;;;;;10.70;99.90;;;;;;5057877;28;20394;-90
2022/10/10 07:10:13;;;;;;;;;;;10.90;99.90;;;;;;5057425;28;19955;-90
2022/10/10 07:12:39;;;;;;;;;;;10.90;99.90;;;;;;5091095;28;19995;-90
2022/10/10 07:15:05;;;;;;;;;;;10.80;99.90;;;;;;5057467;28;20621;-90
2022/10/10 07:17:31;;;;;;;;;;;10.80;99.90;;;;;;5072454;28;19919;-90
2022/10/10 07:19:56;;;;;;;;;;;10.90;99.90;;;;;;5074680;28;24182;-90
2022/10/10 07:22:22;;;;;;;;;;;11.00;99.90;;;;;;5075081;28;19912;-90
2022/10/10 07:24:48;;;;;;;;;;;11.20;99.90;;;;;;5075043;28;19912;-90
2022/10/10 07:27:13;;;;;;;;;;;11.50;99.90;;;;;;5074195;28;24066;-90
2022/10/10 07:29:40;;;;;;;;;;;11.80;99.90;;;;;;5091158;28;20340;-90
2022/10/10 07:32:05;;;;;;;;;;;11.90;99.90;;;;;;5073767;28;19912;-90
2022/10/10 07:34:31;;;;;;;;;;;12.00;99.90;;;;;;5090262;28;19961;-90
2022/10/10 07:36:57;;;;;;;;;;;12.20;99.90;;;;;;5057193;28;20004;-90
2022/10/10 07:39:23;;;;;;;;;;;12.40;99.90;;;;;;5090492;28;24053;-90
2022/10/10 07:41:49;;;;;;;;;;;12.60;99.90;;;;;;5073758;28;24079;-90
2022/10/10 07:44:15;;;;;;;;;;;12.90;99.90;;;;;;5073371;28;24072;-90
2022/10/10 07:46:50;;;;;;;;;;;13.00;99.90;;;;;;5090436;28;19953;-90
2022/10/10 07:49:15;;;;;;;;;;;12.90;99.90;;;;;;5056376;28;19908;-90
2022/10/10 07:51:41;;;;;;;;;;;12.90;99.90;;;;;;5073286;28;19909;-90
2022/10/10 07:54:08;;;;;;;;;;;12.90;99.90;;;;;;5072159;28;19920;-90
2022/10/10 07:56:34;;;;;;;;;;;13.10;99.90;;;;;;5073459;28;19909;-89
2022/10/10 07:58:59;;;;;;;;;;;13.20;99.90;;;;;;5074247;28;19931;-90
2022/10/10 08:01:25;;;;;;;;;;;13.20;99.90;;;;;;5056879;28;19908;-90
2022/10/10 08:03:50;;;;;;;;;;;13.20;99.90;;;;;;5056478;28;24064;-90
2022/10/10 08:06:16;;;;;;;;;;;13.20;99.90;;;;;;5073182;28;19915;-90
2022/10/10 08:09:00;;;;;;;;;;;13.10;99.90;;;;;;5072602;28;20492;-90
2022/10/10 08:11:26;;;;;;;;;;;13.10;99.90;;;;;;5074127;28;19915;-90
2022/10/10 08:13:51;;;;;;;;;;;13.10;99.90;;;;;;5089092;28;25132;-90
2022/10/10 08:16:17;;;;;;;;;;;13.00;99.90;;;;;;5072593;28;19909;-90
2022/10/10 08:18:43;;;;;;;;;;;13.10;99.90;;;;;;5076635;28;20698;-90
2022/10/10 08:21:10;;;;;;;;;;;13.10;99.90;;;;;;5057447;28;24070;-90
2022/10/10 08:23:36;;;;;;;;;;;13.00;99.90;;;;;;5072842;28;19971;-90
2022/10/10 08:26:03;;;;;;;;;;;12.80;99.90;;;;;;5056437;28;19904;-90
2022/10/10 08:28:29;;;;;;;;;;;12.80;99.90;;;;;;5055406;28;19944;-90
2022/10/10 08:30:55;;;;;;;;;;;13.10;99.90;;;;;;5089440;28;20271;-90
2022/10/10 08:33:21;;;;;;;;;;;13.30;99.90;;;;;;5055273;28;19908;-90
2022/10/10 08:35:47;;;;;;;;;;;13.60;99.90;;;;;;5089085;28;24063;-90
2022/10/10 08:38:13;;;;;;;;;;;14.10;99.90;;;;;;5056012;28;19912;-90
2022/10/10 08:40:44;;;;;;;;;;;14.30;99.90;;;;;;5055281;28;19908;-90
2022/10/10 08:43:17;;;;;;;;;;;14.00;99.90;;;;;;5055000;28;24053;-89
2022/10/10 08:45:42;;;;;;;;;;;13.60;99.90;;;;;;5071930;28;19912;-89
2022/10/10 08:48:13;;;;;;;;;;;13.30;99.90;;;;;;5073758;28;19987;-90
2022/10/10 08:50:41;;;;;;;;;;;13.00;99.90;;;;;;5054629;28;19999;-90
2022/10/10 08:53:12;;;;;;;;;;;12.70;99.90;;;;;;5072209;28;19909;-90
2022/10/10 08:56:08;;;;;;;;;;;12.50;99.90;;;;;;5055280;28;20002;-90
2022/10/10 08:58:48;;;;;;;;;;;12.50;99.90;;;;;;5101883;28;24994;-89
2022/10/10 09:01:23;;;;;;;;;;;12.50;99.90;;;;;;5065067;28;19912;-90
2022/10/10 09:03:50;;;;;;;;;;;12.50;99.90;;;;;;5072936;28;19990;-89
2022/10/10 09:06:35;;;;;;;;;;;12.40;99.90;;;;;;5071846;28;25058;-90
2022/10/10 09:09:00;;;;;;;;;;;12.60;99.90;;;;;;5054329;28;20018;-89
2022/10/10 09:11:33;;;;;;;;;;;13.10;99.90;;;;;;5086990;28;20324;-90
2022/10/10 09:14:01;;;;;;;;;;;14.00;99.90;;;;;;5071165;28;20116;-90
2022/10/10 09:16:30;;;;;;;;;;;14.90;99.90;;;;;;5093467;28;19954;-89
2022/10/10 09:19:02;;;;;;;;;;;15.60;99.90;;;;;;5059972;28;20134;-88
2022/10/10 09:21:33;;;;;;;;;;;16.20;99.90;;;;;;5093311;28;20031;-88
2022/10/10 09:24:01;;;;;;;;;;;16.70;99.90;;;;;;5076234;28;20053;-89
2022/10/10 09:26:29;;;;;;;;;;;16.90;99.90;;;;;;5092265;28;20398;-89
2022/10/10 09:28:59;;;;;;;;;;;17.60;99.90;;;;;;5092654;28;19915;-89
2022/10/10 09:31:36;;;;;;;;;;;18.20;99.90;;;;;;5076289;28;19908;-88
2022/10/10 09:34:02;;;;;;;;;;;18.60;99.90;;;;;;5092357;28;24064;-89
2022/10/10 09:36:34;;;;;;;;;;;18.50;99.90;;;;;;5082646;28;20026;-89
2022/10/10 09:39:02;;;;;;;;;;;18.40;99.90;;;;;;5085691;28;20031;-89
2022/10/10 09:41:34;;;;;;;;;;;19.00;99.90;;;;;;5060287;28;20039;-89
2022/10/10 09:44:02;;;;;;;;;;;19.10;99.90;;;;;;5075992;28;20027;-89
2022/10/10 09:46:28;;;;;;;;;;;19.00;99.90;;;;;;5058745;28;20031;-89
2022/10/10 09:48:56;;;;;;;;;;;19.30;99.90;;;;;;5076471;28;20055;-88
2022/10/10 09:54:54;;;;;;;;;;;19.60;99.90;;;;;;5076532;28;20043;-89
2022/10/10 09:57:21;;;;;;;;;;;19.60;99.90;;;;;;5055824;28;20047;-89
2022/10/10 09:59:47;;;;;;;;;;;19.90;99.90;;;;;;5072500;28;20058;-89
2022/10/10 10:02:13;;;;;;;;;;;20.20;99.90;;;;;;5074791;28;20499;-88
2022/10/10 10:04:38;;;;;;;;;;;20.40;99.90;;;;;;5095197;28;20505;-89
2022/10/10 10:07:16;;;;;;;;;;;20.70;99.90;;;;;;5086403;28;20027;-89
2022/10/10 10:09:45;;;;;;;;;;;20.70;99.90;;;;;;5091951;28;20248;-89
2022/10/10 10:12:11;;;;;;;14.50;5.10;;;21.10;99.90;;;;;;5056673;28;20118;-89
2022/10/10 10:14:37;;;;;;;8.88;4.65;;;21.20;99.90;;;;;;5047033;28;20120;-87
2022/10/10 10:17:17;;;;;;;6.05;4.20;;;21.20;99.90;;;;;;5091733;28;20115;-89
2022/10/10 10:19:45;;;;;;;11.18;4.18;;;20.90;99.90;;;;;;5058682;28;20443;-89
2022/10/10 10:22:33;;;;;;;8.48;4.80;;;20.90;99.90;;;;;;5055261;28;20032;-89
2022/10/10 10:25:18;;;;;;;;;;;20.50;99.90;;;;;;5091320;28;20072;-89
2022/10/10 10:27:44;;;;;;;;;;;20.20;99.90;;;;;;5074464;28;20054;-89
2022/10/10 10:30:21;;;;;;;;;;;20.10;99.90;;;;;;5058914;28;20040;-89
2022/10/10 10:32:57;;;;;;;;;;;20.30;99.90;;;;;;5058483;28;20052;-89
2022/10/10 10:35:25;;;;;;;;;;;20.20;99.90;;;;;;5058001;28;20090;-89
2022/10/10 10:38:06;;;;;;;;;;;20.40;99.90;;;;;;5058403;28;20470;-88
2022/10/10 10:40:38;;;;;;;;;;;20.10;99.90;;;;;;5075057;28;20035;-89
2022/10/10 10:43:04;;;;;;;;;;;19.90;99.90;;;;;;5087619;28;20032;-90
2022/10/10 10:45:42;;;;;;;;;;;19.80;99.90;;;;;;5075120;28;20046;-89
2022/10/10 10:48:28;;;;;;;;;;;20.00;99.90;;;;;;5087737;28;20039;-89
2022/10/10 10:50:55;;;;;;;;;;;20.40;99.90;;;;;;5091932;28;20142;-89
2022/10/10 10:53:25;;;;;;;;;;;20.50;99.90;;;;;;5057756;28;20081;-89
2022/10/10 10:56:00;;;;;;;;;;;20.80;99.90;;;;;;5091617;28;20036;-88
2022/10/10 10:58:32;;;;;;;;;;;20.50;99.90;;;;;;5058142;28;20035;-89
2022/10/10 11:01:00;;;;;;;;;;;19.80;99.90;;;;;;5108383;28;20040;-89
2022/10/10 11:03:43;;;;;;;;;;;19.70;99.90;;;;;;5058487;28;20040;-89
2022/10/10 11:06:08;;;;;;;;;;;19.90;99.90;;;;;;5101885;28;20040;-89
2022/10/10 11:08:43;;;;;;;;;;;20.10;99.90;;;;;;5058117;28;20113;-89
2022/10/10 11:11:23;;;;;;;;;;;20.50;99.90;;;;;;5084223;28;20079;-88
2022/10/10 11:13:48;;;;;;;;;;;21.10;99.90;;;;;;5058121;28;20048;-90
2022/10/10 11:16:21;;;;;;;;;;;21.50;99.90;;;;;;5091839;28;20185;-89
2022/10/10 11:19:13;;;;;;;;;;;21.50;99.90;;;;;;5058026;28;20031;-89
2022/10/10 11:22:01;;;;;;;;;;;21.50;99.90;;;;;;5055871;28;20055;-89
2022/10/10 11:28:04;;;;;;;;;;;21.40;99.90;;;;;;5074565;28;20089;-89
2022/10/10 11:30:32;;;;;;;;;;;21.50;99.90;;;;;;5074532;28;20043;-89
2022/10/10 11:33:05;;;;;;;;;;;21.80;99.90;;;;;;5074104;28;20044;-89
2022/10/10 11:35:46;;;;;;;;;;;22.20;99.90;;;;;;5058255;28;20560;-89
2022/10/10 11:38:22;;;;;;;;;;;22.10;99.90;;;;;;5089867;28;20428;-89
2022/10/10 11:41:00;;;;;;;;;;;22.20;99.90;;;;;;5057478;28;20047;-89
2022/10/10 11:43:29;;;;;;;;;;;21.90;99.90;;;;;;5052531;28;20032;-90
2022/10/10 11:46:10;;;;;;;;;;;21.50;99.90;;;;;;5090680;28;20140;-89
2022/10/10 11:48:44;;;;;;;;;;;20.40;99.90;;;;;;5073120;28;20094;-89
2022/10/10 11:51:13;;;;;;;;;;;20.10;99.90;;;;;;5082638;28;20040;-90
2022/10/10 11:53:41;;;;;;;;;;;20.60;99.90;;;;;;5056315;28;20066;-89
2022/10/10 11:56:21;;;;;;;;;;;20.80;99.90;;;;;;5074335;28;20594;-89
2022/10/10 11:59:06;;;;;;;;;;;20.40;99.90;;;;;;5057218;28;20085;-90
2022/10/10 12:01:50;;;;;;;;;;;20.20;99.90;;;;;;5090465;28;20040;-88
2022/10/10 12:04:16;;;;;;;;;;;20.10;99.90;;;;;;5090050;28;20039;-89
2022/10/10 12:09:49;;;;;;;;;;;20.20;99.90;;;;;;5104929;28;20074;-88
2022/10/10 12:12:20;;;;;;;;;;;20.00;99.90;;;;;;5056432;28;20145;-88
2022/10/10 12:14:52;;;;;;;;;;;20.00;99.90;;;;;;5073542;28;20055;-88
2022/10/10 12:17:21;;;;;;;;;;;19.60;99.90;;;;;;5057387;28;19966;-88
2022/10/10 12:19:49;;;;;;;;;;;19.60;99.90;;;;;;5090463;28;20043;-88
2022/10/10 12:25:34;;;;;;;;;;;19.50;99.90;;;;;;5100230;28;20042;-90
2022/10/10 12:28:12;;;;;;;;;;;19.40;99.90;;;;;;5073693;28;20032;-89
2022/10/10 12:30:53;;;;;;;;;;;19.70;99.90;;;;;;5057120;28;20036;-88
2022/10/10 12:33:25;;;;;;;;;;;19.60;99.90;;;;;;5084305;28;20050;-89
2022/10/10 12:35:52;;;;;;;;;;;19.30;99.90;;;;;;5074756;28;20047;-88
2022/10/10 12:38:19;;;;;;;;;;;19.20;99.90;;;;;;5066881;28;20104;-88
2022/10/10 12:41:23;;;;;;;;;;;19.10;99.90;;;;;;5089456;28;20108;-88
2022/10/10 12:44:07;;;;;;;;;;;19.20;99.90;;;;;;5068795;28;20103;-89
2022/10/10 12:46:33;;;;;;;;;;;19.10;99.90;;;;;;5035017;28;20101;-88
2022/10/10 12:49:02;;;;;;;;;;;19.10;99.90;;;;;;5046772;28;20044;-89
2022/10/10 12:51:28;;;;;;;;;;;19.10;99.90;;;;;;5088876;28;20041;-88
2022/10/10 12:53:56;;;;;;;;;;;19.00;99.90;;;;;;5105767;28;20041;-89
2022/10/10 12:56:39;;;;;;;;;;;19.20;99.90;;;;;;5081037;28;20052;-89
2022/10/10 12:59:12;;;;;;;;;;;19.40;99.90;;;;;;5088619;28;20034;-88
2022/10/10 13:01:43;;;;;;;;;;;19.30;99.90;;;;;;5055698;28;20576;-88
2022/10/10 13:04:08;;;;;;;;;;;19.20;99.90;;;;;;5071688;28;20356;-88
2022/10/10 13:06:41;;;;;;;12.40;3.80;;;19.10;99.90;;;;;;5055982;28;20044;-89
2022/10/10 13:09:08;;;;;;;;;;;18.80;99.90;;;;;;5064416;28;20368;-88
2022/10/10 13:11:48;;;;;;;;;;;18.50;99.90;;;;;;5072303;28;20049;-89
2022/10/10 13:14:14;;;;;;;;;;;18.30;99.90;;;;;;5072161;28;20065;-89
2022/10/10 13:16:43;;;;;;;14.90;4.30;;;18.40;99.90;;;;;;5053039;28;20052;-88
2022/10/10 13:19:16;;;;;;;17.50;4.70;;;18.50;99.90;;;;;;5071765;28;20140;-88
2022/10/10 13:21:42;;;;;;;21.10;4.30;;;18.50;99.90;;;;;;5071958;28;19914;-88
2022/10/10 13:24:15;;;;;;;21.40;4.70;;;18.40;99.90;;;;;;5053730;28;20052;-88
2022/10/10 13:26:51;;;;;;;13.90;4.50;;;18.30;99.90;;;;;;5055626;28;20055;-88
2022/10/10 13:29:25;;;;;;;;;;;18.20;99.90;;;;;;5057782;28;20367;-88
2022/10/10 13:31:53;;;;;;;;;;;18.20;99.90;;;;;;5088872;28;20104;-88
2022/10/10 13:35:10;;;;;;;20.90;5.00;;;18.10;99.90;;;;;;5072274;28;20135;-88
2022/10/10 13:37:36;;;;;;;21.60;4.57;;;18.10;99.90;;;;;;5044605;28;19909;-88
2022/10/10 13:40:02;;;;;;;22.70;4.90;;;18.10;99.90;;;;;;5054941;28;20051;-88
2022/10/10 13:42:36;;;;;;;21.00;4.00;;;18.00;99.90;;;;;;5073169;28;20067;-88
2022/10/10 13:45:30;;;;;;;15.07;4.80;;;17.90;99.90;;;;;;5072616;28;20097;-90
2022/10/10 13:48:02;;;;;;;17.92;4.50;;;17.80;99.90;;;;;;5048673;28;20159;-89
2022/10/10 13:50:34;;;;;;;20.55;5.15;;;17.60;99.90;;;;;;5073068;28;20529;-89
2022/10/10 13:53:25;;;;;;;22.15;4.50;;;17.60;99.90;;;;;;5072392;28;19908;-89
2022/10/10 13:56:09;;;;;;;19.90;5.20;;;17.60;99.90;;;;;;5073057;28;20059;-89
2022/10/10 13:58:40;;;;;;;21.20;4.60;;;17.70;99.90;;;;;;5107107;28;20128;-90
2022/10/10 14:01:20;;;;;;;21.40;3.80;;;17.80;99.90;;;;;;5075617;28;20081;-90
2022/10/10 14:03:47;;;;;;;18.00;4.15;;;17.90;99.90;;;;;;5076095;28;20062;-89
2022/10/10 14:06:23;;;;;;;26.90;5.30;;;17.90;99.90;;;;;;5078055;28;19912;-90
2022/10/10 14:08:50;;;;;;;19.75;5.20;;;18.00;99.90;;;;;;5061258;28;19908;-90
2022/10/10 14:11:21;;;;;;;14.40;4.60;;;18.10;99.90;;;;;;5061543;28;20520;-89
2022/10/10 14:13:51;;;;;;;16.60;4.10;;;18.20;99.90;;;;;;5077771;28;20094;-90
2022/10/10 14:16:17;;;;;;;;;;;18.30;99.90;;;;;;5078167;28;20068;-89
2022/10/10 14:18:43;;;;;;;;;;;18.30;99.90;;;;;;5078196;28;20032;-89
2022/10/10 14:21:09;;;;;;;;;;;18.40;99.90;;;;;;5061566;28;20055;-90
2022/10/10 14:23:38;;;;;;;;;;;18.40;99.90;;;;;;5061140;28;20078;-88
2022/10/10 14:26:04;;;;;;;;;;;18.50;99.90;;;;;;5089994;28;20017;-89
2022/10/10 14:28:32;;;;;;;;;;;18.50;99.90;;;;;;5077194;28;20052;-89
2022/10/10 14:30:58;;;;;;;;;;;18.40;99.90;;;;;;5076287;28;20063;-89
2022/10/10 14:33:24;;;;;;;;;;;18.20;99.90;;;;;;5076259;28;20784;-89
2022/10/10 14:35:51;;;;;;;;;;;18.00;99.90;;;;;;5059170;28;20032;-90
2022/10/10 14:38:17;;;;;;;;;;;18.00;99.90;;;;;;5060114;28;20033;-89
2022/10/10 14:44:11;;;;;;;;;;;18.10;99.90;;;;;;5071415;28;20038;-89
2022/10/10 14:46:37;;;;;;;;;;;18.20;99.90;;;;;;5076454;28;20039;-89
2022/10/10 14:49:03;;;;;;;;;;;18.20;99.90;;;;;;5075196;28;20078;-90
2022/10/10 14:51:28;;;;;;;17.30;3.90;;;18.10;99.90;;;;;;5058041;28;20085;-89